sensor_id;sensor_type;location;lat;lon;timestamp;pressure;altitude;pressure_sealevel;temperature
31528;BMP280;10206;48.012;10.030;2022-12-07T00:01:18;94660.31;;;6.74
31528;BMP280;10206;48.012;10.030;2022-12-07T00:03:46;94657.94;;;6.70
31528;BMP280;10206;48.012;10.030;2022-12-07T00:06:14;94658.28;;;6.67
31528;BMP280;10206;48.012;10.030;2022-12-07T00:08:41;94658.84;;;6.73
31528;BMP280;10206;48.012;10.030;2022-12-07T00:11:13;94660.84;;;6.72
31528;BMP280;10206;48.012;10.030;2022-12-07T00:13:40;94656.16;;;6.80
31528;BMP280;10206;48.012;10.030;2022-12-07T00:16:09;94653.59;;;6.75
31528;BMP280;10206;48.012;10.030;2022-12-07T00:18:36;94657.22;;;6.70
31528;BMP280;10206;48.012;10.030;2022-12-07T00:21:20;94657.94;;;6.63
31528;BMP280;10206;48.012;10.030;2022-12-07T00:23:49;94652.50;;;6.63
31528;BMP280;10206;48.012;10.030;2022-12-07T00:26:18;94653.00;;;6.39
31528;BMP280;10206;48.012;10.030;2022-12-07T00:28:49;94641.66;;;6.48
31528;BMP280;10206;48.012;10.030;2022-12-07T00:31:17;94639.47;;;6.39
31528;BMP280;10206;48.012;10.030;2022-12-07T00:33:44;94637.25;;;6.22
31528;BMP280;10206;48.012;10.030;2022-12-07T00:36:14;94641.94;;;6.21
31528;BMP280;10206;48.012;10.030;2022-12-07T00:38:40;94636.19;;;6.32
31528;BMP280;10206;48.012;10.030;2022-12-07T00:41:12;94640.88;;;6.24
31528;BMP280;10206;48.012;10.030;2022-12-07T00:43:39;94638.69;;;6.30
31528;BMP280;10206;48.012;10.030;2022-12-07T00:46:06;94645.56;;;6.31
31528;BMP280;10206;48.012;10.030;2022-12-07T00:48:32;94635.06;;;6.13
31528;BMP280;10206;48.012;10.030;2022-12-07T00:50:58;94644.47;;;6.27
31528;BMP280;10206;48.012;10.030;2022-12-07T00:53:25;94642.63;;;6.07
31528;BMP280;10206;48.012;10.030;2022-12-07T00:55:51;94642.69;;;6.29
31528;BMP280;10206;48.012;10.030;2022-12-07T00:58:19;94645.41;;;6.29
31528;BMP280;10206;48.012;10.030;2022-12-07T01:00:45;94646.59;;;6.13
31528;BMP280;10206;48.012;10.030;2022-12-07T01:03:13;94647.69;;;6.18
31528;BMP280;10206;48.012;10.030;2022-12-07T01:05:40;94652.38;;;6.17
31528;BMP280;10206;48.012;10.030;2022-12-07T01:08:08;94653.28;;;6.12
31528;BMP280;10206;48.012;10.030;2022-12-07T01:10:34;94649.53;;;6.30
31528;BMP280;10206;48.012;10.030;2022-12-07T01:13:00;94652.78;;;6.29
31528;BMP280;10206;48.012;10.030;2022-12-07T01:15:26;94651.50;;;6.22
31528;BMP280;10206;48.012;10.030;2022-12-07T01:17:53;94651.25;;;6.05
31528;BMP280;10206;48.012;10.030;2022-12-07T01:20:20;94654.03;;;6.13
31528;BMP280;10206;48.012;10.030;2022-12-07T01:22:46;94645.91;;;6.13
31528;BMP280;10206;48.012;10.030;2022-12-07T01:25:12;94656.72;;;6.13
31528;BMP280;10206;48.012;10.030;2022-12-07T01:27:38;94655.28;;;6.19
31528;BMP280;10206;48.012;10.030;2022-12-07T01:30:06;94658.50;;;6.10
31528;BMP280;10206;48.012;10.030;2022-12-07T01:32:33;94660.88;;;6.21
31528;BMP280;10206;48.012;10.030;2022-12-07T01:34:59;94662.47;;;6.17
31528;BMP280;10206;48.012;10.030;2022-12-07T01:37:25;94662.16;;;6.28
31528;BMP280;10206;48.012;10.030;2022-12-07T01:39:52;94667.19;;;6.16
31528;BMP280;10206;48.012;10.030;2022-12-07T01:42:19;94664.84;;;6.13
31528;BMP280;10206;48.012;10.030;2022-12-07T01:47:53;94658.56;;;6.25
31528;BMP280;10206;48.012;10.030;2022-12-07T01:50:22;94651.31;;;6.20
31528;BMP280;10206;48.012;10.030;2022-12-07T01:52:51;94655.25;;;6.12
31528;BMP280;10206;48.012;10.030;2022-12-07T01:55:18;94648.38;;;6.11
31528;BMP280;10206;48.012;10.030;2022-12-07T01:57:48;94643.72;;;6.11
31528;BMP280;10206;48.012;10.030;2022-12-07T02:00:16;94657.06;;;6.09
31528;BMP280;10206;48.012;10.030;2022-12-07T02:05:32;94651.66;;;6.17
31528;BMP280;10206;48.012;10.030;2022-12-07T02:07:59;94645.50;;;6.09
31528;BMP280;10206;48.012;10.030;2022-12-07T02:10:28;94642.94;;;5.96
31528;BMP280;10206;48.012;10.030;2022-12-07T02:13:13;94641.13;;;5.98
31528;BMP280;10206;48.012;10.030;2022-12-07T02:18:56;94642.59;;;6.14
31528;BMP280;10206;48.012;10.030;2022-12-07T02:29:45;94639.91;;;6.07
31528;BMP280;10206;48.012;10.030;2022-12-07T02:32:18;94636.44;;;5.99
31528;BMP280;10206;48.012;10.030;2022-12-07T02:35:07;94632.78;;;5.89
31528;BMP280;10206;48.012;10.030;2022-12-07T02:38:12;94628.31;;;5.99
31528;BMP280;10206;48.012;10.030;2022-12-07T02:40:55;94634.63;;;6.01
31528;BMP280;10206;48.012;10.030;2022-12-07T02:43:52;94639.03;;;6.12
31528;BMP280;10206;48.012;10.030;2022-12-07T02:46:25;94631.91;;;6.01
31528;BMP280;10206;48.012;10.030;2022-12-07T02:48:54;94634.28;;;5.97
31528;BMP280;10206;48.012;10.030;2022-12-07T02:51:22;94636.38;;;5.91
31528;BMP280;10206;48.012;10.030;2022-12-07T02:53:48;94631.31;;;5.80
31528;BMP280;10206;48.012;10.030;2022-12-07T02:56:31;94634.56;;;5.86
31528;BMP280;10206;48.012;10.030;2022-12-07T03:02:22;94634.16;;;5.75
31528;BMP280;10206;48.012;10.030;2022-12-07T03:07:49;94633.69;;;5.84
31528;BMP280;10206;48.012;10.030;2022-12-07T03:19:06;94630.06;;;5.81
31528;BMP280;10206;48.012;10.030;2022-12-07T03:21:43;94627.69;;;5.85
31528;BMP280;10206;48.012;10.030;2022-12-07T03:24:16;94628.38;;;5.78
31528;BMP280;10206;48.012;10.030;2022-12-07T03:26:55;94634.97;;;5.90
31528;BMP280;10206;48.012;10.030;2022-12-07T03:29:49;94631.78;;;5.71
31528;BMP280;10206;48.012;10.030;2022-12-07T03:32:14;94632.94;;;5.83
31528;BMP280;10206;48.012;10.030;2022-12-07T03:37:38;94642.53;;;5.84
31528;BMP280;10206;48.012;10.030;2022-12-07T03:42:41;94636.72;;;5.80
31528;BMP280;10206;48.012;10.030;2022-12-07T03:45:08;94638.13;;;5.74
31528;BMP280;10206;48.012;10.030;2022-12-07T03:47:56;94626.44;;;5.86
31528;BMP280;10206;48.012;10.030;2022-12-07T03:54:16;94624.75;;;5.76
31528;BMP280;10206;48.012;10.030;2022-12-07T03:56:16;94634.16;;;5.75
31528;BMP280;10206;48.012;10.030;2022-12-07T03:58:43;94637.25;;;5.79
31528;BMP280;10206;48.012;10.030;2022-12-07T04:01:09;94628.94;;;5.77
31528;BMP280;10206;48.012;10.030;2022-12-07T04:03:36;94627.06;;;5.71
31528;BMP280;10206;48.012;10.030;2022-12-07T04:06:02;94642.59;;;5.71
31528;BMP280;10206;48.012;10.030;2022-12-07T04:08:28;94636.81;;;5.67
31528;BMP280;10206;48.012;10.030;2022-12-07T04:10:54;94633.41;;;5.66
31528;BMP280;10206;48.012;10.030;2022-12-07T04:13:20;94627.91;;;5.59
31528;BMP280;10206;48.012;10.030;2022-12-07T04:15:46;94636.66;;;5.65
31528;BMP280;10206;48.012;10.030;2022-12-07T04:18:13;94632.63;;;5.58
31528;BMP280;10206;48.012;10.030;2022-12-07T04:20:39;94635.72;;;5.62
31528;BMP280;10206;48.012;10.030;2022-12-07T04:23:05;94631.91;;;5.58
31528;BMP280;10206;48.012;10.030;2022-12-07T04:25:34;94632.63;;;5.58
31528;BMP280;10206;48.012;10.030;2022-12-07T04:28:00;94630.41;;;5.49
31528;BMP280;10206;48.012;10.030;2022-12-07T04:30:26;94644.47;;;5.48
31528;BMP280;10206;48.012;10.030;2022-12-07T04:32:52;94641.22;;;5.49
31528;BMP280;10206;48.012;10.030;2022-12-07T04:35:18;94636.75;;;5.52
31528;BMP280;10206;48.012;10.030;2022-12-07T04:37:44;94624.84;;;5.55
31528;BMP280;10206;48.012;10.030;2022-12-07T04:40:11;94634.16;;;5.46
31528;BMP280;10206;48.012;10.030;2022-12-07T04:42:38;94638.47;;;5.42
31528;BMP280;10206;48.012;10.030;2022-12-07T04:45:05;94633.66;;;5.48
31528;BMP280;10206;48.012;10.030;2022-12-07T04:47:31;94634.91;;;5.47
31528;BMP280;10206;48.012;10.030;2022-12-07T04:49:57;94636.34;;;5.48
31528;BMP280;10206;48.012;10.030;2022-12-07T04:52:23;94637.94;;;5.43
31528;BMP280;10206;48.012;10.030;2022-12-07T04:54:49;94630.13;;;5.40
31528;BMP280;10206;48.012;10.030;2022-12-07T04:57:15;94637.19;;;5.43
31528;BMP280;10206;48.012;10.030;2022-12-07T04:59:42;94635.44;;;5.45
31528;BMP280;10206;48.012;10.030;2022-12-07T05:02:08;94630.53;;;5.44
31528;BMP280;10206;48.012;10.030;2022-12-07T05:04:34;94628.16;;;5.40
31528;BMP280;10206;48.012;10.030;2022-12-07T05:07:00;94632.50;;;5.36
31528;BMP280;10206;48.012;10.030;2022-12-07T05:09:26;94629.59;;;5.34
31528;BMP280;10206;48.012;10.030;2022-12-07T05:11:52;94630.44;;;5.29
31528;BMP280;10206;48.012;10.030;2022-12-07T05:14:20;94634.50;;;5.43
31528;BMP280;10206;48.012;10.030;2022-12-07T05:16:48;94636.50;;;5.42
31528;BMP280;10206;48.012;10.030;2022-12-07T05:19:15;94635.56;;;5.40
31528;BMP280;10206;48.012;10.030;2022-12-07T05:21:41;94634.59;;;5.30
31528;BMP280;10206;48.012;10.030;2022-12-07T05:24:10;94631.09;;;5.42
31528;BMP280;10206;48.012;10.030;2022-12-07T05:26:36;94631.28;;;5.44
31528;BMP280;10206;48.012;10.030;2022-12-07T05:29:03;94632.94;;;5.27
31528;BMP280;10206;48.012;10.030;2022-12-07T05:31:29;94638.88;;;5.25
31528;BMP280;10206;48.012;10.030;2022-12-07T05:33:55;94639.25;;;5.22
31528;BMP280;10206;48.012;10.030;2022-12-07T05:36:22;94630.41;;;5.21
31528;BMP280;10206;48.012;10.030;2022-12-07T05:38:48;94638.97;;;5.33
31528;BMP280;10206;48.012;10.030;2022-12-07T05:41:18;94631.56;;;5.33
31528;BMP280;10206;48.012;10.030;2022-12-07T05:44:04;94634.25;;;5.33
31528;BMP280;10206;48.012;10.030;2022-12-07T05:46:30;94627.22;;;5.30
31528;BMP280;10206;48.012;10.030;2022-12-07T05:48:56;94625.63;;;5.35
31528;BMP280;10206;48.012;10.030;2022-12-07T05:51:23;94628.66;;;5.31
31528;BMP280;10206;48.012;10.030;2022-12-07T05:53:49;94636.44;;;5.35
31528;BMP280;10206;48.012;10.030;2022-12-07T05:56:15;94636.25;;;5.33
31528;BMP280;10206;48.012;10.030;2022-12-07T05:58:41;94629.97;;;5.38
31528;BMP280;10206;48.012;10.030;2022-12-07T06:01:26;94629.91;;;5.30
31528;BMP280;10206;48.012;10.030;2022-12-07T06:03:52;94637.84;;;5.28
31528;BMP280;10206;48.012;10.030;2022-12-07T06:06:18;94640.34;;;5.26
31528;BMP280;10206;48.012;10.030;2022-12-07T06:08:45;94642.91;;;5.32
31528;BMP280;10206;48.012;10.030;2022-12-07T06:11:11;94641.84;;;5.35
31528;BMP280;10206;48.012;10.030;2022-12-07T06:13:55;94640.94;;;5.32
31528;BMP280;10206;48.012;10.030;2022-12-07T06:16:21;94644.38;;;5.33
31528;BMP280;10206;48.012;10.030;2022-12-07T06:18:48;94637.91;;;5.36
31528;BMP280;10206;48.012;10.030;2022-12-07T06:21:14;94633.84;;;5.22
31528;BMP280;10206;48.012;10.030;2022-12-07T06:23:40;94636.03;;;5.31
31528;BMP280;10206;48.012;10.030;2022-12-07T06:26:06;94635.00;;;5.34
31528;BMP280;10206;48.012;10.030;2022-12-07T06:28:32;94639.16;;;5.35
31528;BMP280;10206;48.012;10.030;2022-12-07T06:31:00;94636.03;;;5.31
31528;BMP280;10206;48.012;10.030;2022-12-07T06:33:27;94629.91;;;5.30
31528;BMP280;10206;48.012;10.030;2022-12-07T06:35:54;94641.44;;;5.31
31528;BMP280;10206;48.012;10.030;2022-12-07T06:38:21;94648.31;;;5.32
31528;BMP280;10206;48.012;10.030;2022-12-07T06:40:47;94650.78;;;5.22
31528;BMP280;10206;48.012;10.030;2022-12-07T06:43:14;94639.97;;;5.22
31528;BMP280;10206;48.012;10.030;2022-12-07T06:45:41;94646.13;;;5.30
31528;BMP280;10206;48.012;10.030;2022-12-07T06:48:07;94643.09;;;5.34
31528;BMP280;10206;48.012;10.030;2022-12-07T06:50:34;94650.69;;;5.35
31528;BMP280;10206;48.012;10.030;2022-12-07T06:53:00;94654.13;;;5.36
31528;BMP280;10206;48.012;10.030;2022-12-07T06:55:26;94651.75;;;5.32
31528;BMP280;10206;48.012;10.030;2022-12-07T06:57:52;94653.91;;;5.34
31528;BMP280;10206;48.012;10.030;2022-12-07T07:00:18;94656.28;;;5.37
31528;BMP280;10206;48.012;10.030;2022-12-07T07:02:44;94653.91;;;5.54
31528;BMP280;10206;48.012;10.030;2022-12-07T07:05:10;94664.97;;;5.43
31528;BMP280;10206;48.012;10.030;2022-12-07T07:07:36;94659.53;;;5.36
31528;BMP280;10206;48.012;10.030;2022-12-07T07:10:03;94667.03;;;5.30
31528;BMP280;10206;48.012;10.030;2022-12-07T07:12:29;94666.34;;;5.29
31528;BMP280;10206;48.012;10.030;2022-12-07T07:14:55;94663.63;;;5.29
31528;BMP280;10206;48.012;10.030;2022-12-07T07:17:22;94667.38;;;5.26
31528;BMP280;10206;48.012;10.030;2022-12-07T07:19:48;94668.78;;;5.20
31528;BMP280;10206;48.012;10.030;2022-12-07T07:22:14;94673.16;;;5.23
31528;BMP280;10206;48.012;10.030;2022-12-07T07:24:40;94667.56;;;5.28
31528;BMP280;10206;48.012;10.030;2022-12-07T07:27:07;94675.03;;;5.35
31528;BMP280;10206;48.012;10.030;2022-12-07T07:29:33;94670.00;;;5.39
31528;BMP280;10206;48.012;10.030;2022-12-07T07:32:00;94671.84;;;5.44
31528;BMP280;10206;48.012;10.030;2022-12-07T07:34:26;94670.66;;;5.53
31528;BMP280;10206;48.012;10.030;2022-12-07T07:36:53;94670.28;;;5.56
31528;BMP280;10206;48.012;10.030;2022-12-07T07:39:19;94676.28;;;5.62
31528;BMP280;10206;48.012;10.030;2022-12-07T07:41:46;94676.28;;;5.62
31528;BMP280;10206;48.012;10.030;2022-12-07T07:44:12;94673.34;;;5.53
31528;BMP280;10206;48.012;10.030;2022-12-07T07:46:39;94675.38;;;5.60
31528;BMP280;10206;48.012;10.030;2022-12-07T07:49:05;94680.13;;;5.67
31528;BMP280;10206;48.012;10.030;2022-12-07T07:51:31;94681.59;;;5.68
31528;BMP280;10206;48.012;10.030;2022-12-07T07:53:57;94682.91;;;5.82
31528;BMP280;10206;48.012;10.030;2022-12-07T07:56:23;94685.63;;;5.82
31528;BMP280;10206;48.012;10.030;2022-12-07T07:58:52;94686.34;;;5.83
31528;BMP280;10206;48.012;10.030;2022-12-07T08:01:18;94686.22;;;5.96
31528;BMP280;10206;48.012;10.030;2022-12-07T08:03:46;94682.94;;;5.90
31528;BMP280;10206;48.012;10.030;2022-12-07T08:06:13;94692.31;;;5.81
31528;BMP280;10206;48.012;10.030;2022-12-07T08:08:39;94692.84;;;5.87
31528;BMP280;10206;48.012;10.030;2022-12-07T08:11:06;94697.25;;;5.98
31528;BMP280;10206;48.012;10.030;2022-12-07T08:13:33;94699.75;;;5.96
31528;BMP280;10206;48.012;10.030;2022-12-07T08:16:02;94694.16;;;5.94
31528;BMP280;10206;48.012;10.030;2022-12-07T08:18:29;94694.75;;;6.07
31528;BMP280;10206;48.012;10.030;2022-12-07T08:20:59;94686.84;;;6.17
31528;BMP280;10206;48.012;10.030;2022-12-07T08:23:27;94688.72;;;6.29
31528;BMP280;10206;48.012;10.030;2022-12-07T08:25:53;94692.19;;;6.38
31528;BMP280;10206;48.012;10.030;2022-12-07T08:28:19;94691.81;;;6.41
31528;BMP280;10206;48.012;10.030;2022-12-07T08:30:45;94695.13;;;6.55
31528;BMP280;10206;48.012;10.030;2022-12-07T08:33:11;94697.50;;;6.58
31528;BMP280;10206;48.012;10.030;2022-12-07T08:35:37;94698.56;;;6.55
31528;BMP280;10206;48.012;10.030;2022-12-07T08:38:04;94696.56;;;6.56
31528;BMP280;10206;48.012;10.030;2022-12-07T08:40:30;94691.88;;;6.56
31528;BMP280;10206;48.012;10.030;2022-12-07T08:42:57;94691.38;;;6.73
31528;BMP280;10206;48.012;10.030;2022-12-07T08:45:23;94700.25;;;6.81
31528;BMP280;10206;48.012;10.030;2022-12-07T08:48:04;94696.25;;;6.82
31528;BMP280;10206;48.012;10.030;2022-12-07T08:50:33;94700.06;;;6.71
31528;BMP280;10206;48.012;10.030;2022-12-07T08:53:00;94701.50;;;6.65
31528;BMP280;10206;48.012;10.030;2022-12-07T08:55:27;94694.94;;;6.53
31528;BMP280;10206;48.012;10.030;2022-12-07T08:57:54;94691.53;;;6.60
31528;BMP280;10206;48.012;10.030;2022-12-07T09:00:21;94687.41;;;6.74
31528;BMP280;10206;48.012;10.030;2022-12-07T09:02:47;94690.50;;;6.78
31528;BMP280;10206;48.012;10.030;2022-12-07T09:05:13;94690.69;;;6.95
31528;BMP280;10206;48.012;10.030;2022-12-07T09:07:45;94685.94;;;6.73
31528;BMP280;10206;48.012;10.030;2022-12-07T09:10:12;94692.63;;;6.72
31528;BMP280;10206;48.012;10.030;2022-12-07T09:12:38;94689.75;;;6.85
31528;BMP280;10206;48.012;10.030;2022-12-07T09:15:04;94689.59;;;6.98
31528;BMP280;10206;48.012;10.030;2022-12-07T09:17:32;94693.22;;;7.01
31528;BMP280;10206;48.012;10.030;2022-12-07T09:19:59;94692.34;;;6.90
31528;BMP280;10206;48.012;10.030;2022-12-07T09:22:29;94689.25;;;7.09
31528;BMP280;10206;48.012;10.030;2022-12-07T09:24:57;94677.84;;;7.11
31528;BMP280;10206;48.012;10.030;2022-12-07T09:27:23;94678.03;;;6.97
31528;BMP280;10206;48.012;10.030;2022-12-07T09:29:49;94680.03;;;7.12
31528;BMP280;10206;48.012;10.030;2022-12-07T09:32:16;94677.50;;;7.22
31528;BMP280;10206;48.012;10.030;2022-12-07T09:34:42;94671.53;;;7.23
31528;BMP280;10206;48.012;10.030;2022-12-07T09:37:08;94671.72;;;7.25
31528;BMP280;10206;48.012;10.030;2022-12-07T09:39:34;94670.28;;;7.24
31528;BMP280;10206;48.012;10.030;2022-12-07T09:42:03;94672.06;;;7.29
31528;BMP280;10206;48.012;10.030;2022-12-07T09:44:30;94670.09;;;7.37
31528;BMP280;10206;48.012;10.030;2022-12-07T09:46:57;94670.44;;;7.41
31528;BMP280;10206;48.012;10.030;2022-12-07T09:49:25;94658.28;;;7.73
31528;BMP280;10206;48.012;10.030;2022-12-07T09:54:30;94664.91;;;7.87
31528;BMP280;10206;48.012;10.030;2022-12-07T09:56:59;94662.19;;;7.87
31528;BMP280;10206;48.012;10.030;2022-12-07T09:59:26;94664.88;;;8.02
31528;BMP280;10206;48.012;10.030;2022-12-07T10:01:52;94662.50;;;8.06
31528;BMP280;10206;48.012;10.030;2022-12-07T10:04:21;94657.75;;;8.14
31528;BMP280;10206;48.012;10.030;2022-12-07T10:06:48;94651.41;;;8.19
31528;BMP280;10206;48.012;10.030;2022-12-07T10:09:15;94656.72;;;8.02
31528;BMP280;10206;48.012;10.030;2022-12-07T10:12:03;94652.25;;;8.29
31528;BMP280;10206;48.012;10.030;2022-12-07T10:14:31;94653.38;;;8.26
31528;BMP280;10206;48.012;10.030;2022-12-07T10:16:58;94642.38;;;8.49
31528;BMP280;10206;48.012;10.030;2022-12-07T10:19:29;94644.28;;;8.31
31528;BMP280;10206;48.012;10.030;2022-12-07T10:22:13;94645.13;;;8.41
31528;BMP280;10206;48.012;10.030;2022-12-07T10:24:42;94646.28;;;7.76
31528;BMP280;10206;48.012;10.030;2022-12-07T10:27:20;94643.34;;;7.96
31528;BMP280;10206;48.012;10.030;2022-12-07T10:29:50;94643.72;;;7.93
31528;BMP280;10206;48.012;10.030;2022-12-07T10:34:43;94644.34;;;8.16
31528;BMP280;10206;48.012;10.030;2022-12-07T10:37:18;94646.78;;;8.37
31528;BMP280;10206;48.012;10.030;2022-12-07T10:39:52;94640.34;;;8.49
31528;BMP280;10206;48.012;10.030;2022-12-07T10:42:32;94639.84;;;8.43
31528;BMP280;10206;48.012;10.030;2022-12-07T10:45:14;94630.16;;;8.33
31528;BMP280;10206;48.012;10.030;2022-12-07T10:53:09;94620.81;;;8.11
31528;BMP280;10206;48.012;10.030;2022-12-07T10:56:08;94618.19;;;7.88
31528;BMP280;10206;48.012;10.030;2022-12-07T11:04:30;94612.59;;;8.58
31528;BMP280;10206;48.012;10.030;2022-12-07T11:10:02;94613.00;;;8.47
31528;BMP280;10206;48.012;10.030;2022-12-07T11:12:35;94610.38;;;8.64
31528;BMP280;10206;48.012;10.030;2022-12-07T11:15:23;94603.50;;;8.63
31528;BMP280;10206;48.012;10.030;2022-12-07T11:28:38;94586.81;;;8.59
31528;BMP280;10206;48.012;10.030;2022-12-07T11:31:24;94586.06;;;8.66
31528;BMP280;10206;48.012;10.030;2022-12-07T11:34:06;94589.06;;;8.53
31528;BMP280;10206;48.012;10.030;2022-12-07T11:36:46;94578.97;;;8.46
31528;BMP280;10206;48.012;10.030;2022-12-07T11:39:23;94580.66;;;8.59
31528;BMP280;10206;48.012;10.030;2022-12-07T11:42:15;94576.31;;;8.63
31528;BMP280;10206;48.012;10.030;2022-12-07T11:44:48;94579.13;;;8.73
31528;BMP280;10206;48.012;10.030;2022-12-07T11:47:28;94577.41;;;8.60
31528;BMP280;10206;48.012;10.030;2022-12-07T11:50:05;94567.19;;;8.93
31528;BMP280;10206;48.012;10.030;2022-12-07T11:55:18;94572.13;;;8.87
31528;BMP280;10206;48.012;10.030;2022-12-07T11:57:47;94565.78;;;8.84
31528;BMP280;10206;48.012;10.030;2022-12-07T12:00:17;94566.13;;;9.06
31528;BMP280;10206;48.012;10.030;2022-12-07T12:03:13;94563.50;;;9.15
31528;BMP280;10206;48.012;10.030;2022-12-07T12:05:41;94555.72;;;8.53
31528;BMP280;10206;48.012;10.030;2022-12-07T12:08:21;94553.44;;;8.42
31528;BMP280;10206;48.012;10.030;2022-12-07T12:11:28;94553.19;;;8.72
31528;BMP280;10206;48.012;10.030;2022-12-07T12:19:30;94546.91;;;8.45
31528;BMP280;10206;48.012;10.030;2022-12-07T12:22:17;94543.91;;;8.33
31528;BMP280;10206;48.012;10.030;2022-12-07T12:24:46;94545.81;;;8.23
31528;BMP280;10206;48.012;10.030;2022-12-07T12:27:26;94540.91;;;8.21
31528;BMP280;10206;48.012;10.030;2022-12-07T12:30:04;94539.03;;;8.32
31528;BMP280;10206;48.012;10.030;2022-12-07T12:32:38;94540.59;;;8.42
31528;BMP280;10206;48.012;10.030;2022-12-07T12:35:31;94538.03;;;8.44
31528;BMP280;10206;48.012;10.030;2022-12-07T12:40:55;94528.09;;;8.39
31528;BMP280;10206;48.012;10.030;2022-12-07T12:51:49;94531.88;;;7.87
31528;BMP280;10206;48.012;10.030;2022-12-07T12:57:33;94523.72;;;7.47
31528;BMP280;10206;48.012;10.030;2022-12-07T13:00:01;94522.84;;;7.37
31528;BMP280;10206;48.012;10.030;2022-12-07T13:02:36;94530.53;;;7.08
31528;BMP280;10206;48.012;10.030;2022-12-07T13:05:20;94522.72;;;7.20
31528;BMP280;10206;48.012;10.030;2022-12-07T13:15:50;94522.75;;;7.05
31528;BMP280;10206;48.012;10.030;2022-12-07T13:29:20;94513.03;;;6.94
31528;BMP280;10206;48.012;10.030;2022-12-07T13:31:51;94508.31;;;7.10
31528;BMP280;10206;48.012;10.030;2022-12-07T13:37:25;94508.69;;;6.99
31528;BMP280;10206;48.012;10.030;2022-12-07T13:42:30;94495.91;;;6.39
31528;BMP280;10206;48.012;10.030;2022-12-07T13:44:59;94497.50;;;6.72
31528;BMP280;10206;48.012;10.030;2022-12-07T13:47:41;94491.72;;;6.68
31528;BMP280;10206;48.012;10.030;2022-12-07T13:50:31;94486.31;;;6.60
31528;BMP280;10206;48.012;10.030;2022-12-07T13:52:59;94491.94;;;6.47
31528;BMP280;10206;48.012;10.030;2022-12-07T13:55:26;94489.94;;;6.48
31528;BMP280;10206;48.012;10.030;2022-12-07T13:57:54;94486.84;;;6.44
31528;BMP280;10206;48.012;10.030;2022-12-07T14:00:25;94478.38;;;6.40
31528;BMP280;10206;48.012;10.030;2022-12-07T14:05:40;94480.91;;;6.38
31528;BMP280;10206;48.012;10.030;2022-12-07T14:08:22;94490.66;;;6.25
31528;BMP280;10206;48.012;10.030;2022-12-07T14:16:04;94482.16;;;6.06
31528;BMP280;10206;48.012;10.030;2022-12-07T14:18:39;94492.06;;;5.96
31528;BMP280;10206;48.012;10.030;2022-12-07T14:23:38;94489.09;;;5.71
31528;BMP280;10206;48.012;10.030;2022-12-07T14:26:14;94487.81;;;5.57
31528;BMP280;10206;48.012;10.030;2022-12-07T14:28:41;94480.94;;;5.49
31528;BMP280;10206;48.012;10.030;2022-12-07T14:31:18;94482.53;;;5.44
31528;BMP280;10206;48.012;10.030;2022-12-07T14:33:46;94484.78;;;5.25
31528;BMP280;10206;48.012;10.030;2022-12-07T14:36:13;94484.97;;;5.20
31528;BMP280;10206;48.012;10.030;2022-12-07T14:38:40;94481.97;;;5.02
31528;BMP280;10206;48.012;10.030;2022-12-07T14:41:18;94484.69;;;5.02
31528;BMP280;10206;48.012;10.030;2022-12-07T14:44:11;94488.97;;;4.98
31528;BMP280;10206;48.012;10.030;2022-12-07T14:46:37;94478.03;;;5.03
31528;BMP280;10206;48.012;10.030;2022-12-07T14:49:04;94484.22;;;4.91
31528;BMP280;10206;48.012;10.030;2022-12-07T14:51:30;94484.72;;;4.82
31528;BMP280;10206;48.012;10.030;2022-12-07T14:53:56;94478.53;;;4.74
31528;BMP280;10206;48.012;10.030;2022-12-07T14:56:22;94477.66;;;4.71
31528;BMP280;10206;48.012;10.030;2022-12-07T14:58:48;94479.88;;;4.60
31528;BMP280;10206;48.012;10.030;2022-12-07T15:01:14;94470.31;;;4.59
31528;BMP280;10206;48.012;10.030;2022-12-07T15:03:40;94473.19;;;4.53
31528;BMP280;10206;48.012;10.030;2022-12-07T15:06:06;94483.59;;;4.49
31528;BMP280;10206;48.012;10.030;2022-12-07T15:08:33;94478.19;;;4.49
31528;BMP280;10206;48.012;10.030;2022-12-07T15:10:59;94482.22;;;4.35
31528;BMP280;10206;48.012;10.030;2022-12-07T15:13:25;94480.00;;;4.26
31528;BMP280;10206;48.012;10.030;2022-12-07T15:16:16;94478.94;;;4.29
31528;BMP280;10206;48.012;10.030;2022-12-07T15:18:43;94481.31;;;4.12
31528;BMP280;10206;48.012;10.030;2022-12-07T15:21:15;94472.63;;;4.06
31528;BMP280;10206;48.012;10.030;2022-12-07T15:23:42;94477.09;;;4.03
31528;BMP280;10206;48.012;10.030;2022-12-07T15:26:10;94486.00;;;3.98
31528;BMP280;10206;48.012;10.030;2022-12-07T15:28:37;94477.66;;;3.88
31528;BMP280;10206;48.012;10.030;2022-12-07T15:31:03;94485.56;;;3.86
31528;BMP280;10206;48.012;10.030;2022-12-07T15:33:29;94484.50;;;3.89
31528;BMP280;10206;48.012;10.030;2022-12-07T15:35:55;94479.56;;;3.80
31528;BMP280;10206;48.012;10.030;2022-12-07T15:38:21;94484.94;;;3.80
31528;BMP280;10206;48.012;10.030;2022-12-07T15:40:48;94487.41;;;3.78
31528;BMP280;10206;48.012;10.030;2022-12-07T15:43:15;94488.47;;;3.75
31528;BMP280;10206;48.012;10.030;2022-12-07T15:45:59;94484.78;;;3.65
31528;BMP280;10206;48.012;10.030;2022-12-07T15:48:26;94484.78;;;3.65
31528;BMP280;10206;48.012;10.030;2022-12-07T15:50:52;94487.59;;;3.60
31528;BMP280;10206;48.012;10.030;2022-12-07T15:53:18;94483.22;;;3.57
31528;BMP280;10206;48.012;10.030;2022-12-07T15:55:44;94488.63;;;3.57
31528;BMP280;10206;48.012;10.030;2022-12-07T15:58:10;94477.44;;;3.53
31528;BMP280;10206;48.012;10.030;2022-12-07T16:00:36;94472.88;;;3.48
31528;BMP280;10206;48.012;10.030;2022-12-07T16:03:02;94471.41;;;3.47
31528;BMP280;10206;48.012;10.030;2022-12-07T16:05:28;94464.25;;;3.49
31528;BMP280;10206;48.012;10.030;2022-12-07T16:07:54;94469.44;;;3.47
31528;BMP280;10206;48.012;10.030;2022-12-07T16:10:20;94466.38;;;3.43
31528;BMP280;10206;48.012;10.030;2022-12-07T16:12:46;94473.03;;;3.42
31528;BMP280;10206;48.012;10.030;2022-12-07T16:15:12;94463.69;;;3.30
31528;BMP280;10206;48.012;10.030;2022-12-07T16:17:38;94471.56;;;3.28
31528;BMP280;10206;48.012;10.030;2022-12-07T16:20:05;94459.56;;;3.29
31528;BMP280;10206;48.012;10.030;2022-12-07T16:22:31;94470.53;;;3.31
31528;BMP280;10206;48.012;10.030;2022-12-07T16:24:57;94470.56;;;3.18
31528;BMP280;10206;48.012;10.030;2022-12-07T16:27:24;94468.44;;;3.24
31528;BMP280;10206;48.012;10.030;2022-12-07T16:29:50;94465.16;;;3.18
31528;BMP280;10206;48.012;10.030;2022-12-07T16:32:16;94466.69;;;3.26